Antioch, Mississippi
Current Conditions -  °F | °C
As of 2:55 PM on Friday 19 Dec 2014 (Local Time) from KPIB Reporting Station
Clear Clear  
Wind Chill: 48°   Ceiling: Unl
Heat Index: 48°   Visibility: 8mi
Dew Point: 43°   Wind: 3mph
Humidity: 82%   Direction: 50°NE
Pressure: 30.14"   Gusts: NA
Location:  31.6875°N, 89.1116°W
Report Text: KPIB 192055Z AUTO 05003KT 8SM CLR 09/06 A3014 RMK AO1 P0004 60006 57007
Loading
Personal Weather Stations






























Interactive Weather Map New forecast layout! Learn more

10-Day Weather Forecast

Advertisements
Track Severe Weather on mobile